Time;durP1;ratioP1;P1;durP2;ratioP2;P2;SDS_P1;SDS_P2;PMS_P1;PMS_P2;Temp;Humidity;BMP_temperature;BMP_pressure;BME280_temperature;BME280_humidity;BME280_pressure;Samples;Min_cycle;Max_cycle;Signal;HPM_P1;HPM_P2
2023/06/01 00:01:37;;;;;;;;;;;;;;;;;;7372500;19;1694;-62
2023/06/01 00:04:05;;;;;;;;;;;;;;;;;;7368512;19;774;-62
2023/06/01 00:06:33;;;;;;;;;;;;;;;;;;7369333;19;1706;-62
2023/06/01 00:09:02;;;;;;;;;;;;;;;;;;7367488;19;2026;-63
2023/06/01 00:11:30;;;;;;;;;;;;;;;;;;7369813;19;1609;-61
2023/06/01 00:13:58;;;;;;;;;;;;;;;;;;7370840;19;2085;-63
2023/06/01 00:16:26;;;;;;;;;;;;;;;;;;7367017;19;758;-62
2023/06/01 00:18:56;;;;;;;;;;;;;;;;;;7366205;19;1862;-61
2023/06/01 00:21:24;;;;;;;;;;;;;;;;;;7368570;19;1843;-62
2023/06/01 00:23:52;;;;;;;;;;;;;;;;;;7368572;19;2031;-59
2023/06/01 00:26:21;;;;;;;;;;;;;;;;;;7370392;19;1846;-60
2023/06/01 00:28:51;;;;;;;;;;;;;;;;;;7366162;19;1626;-57
2023/06/01 00:31:20;;;;;;;;;;;;;;;;;;7368958;19;1872;-61
2023/06/01 00:33:49;;;;;;;;;;;;;;;;;;7367460;19;2234;-60
2023/06/01 00:36:17;;;;;;;;;;;;;;;;;;7361741;19;1889;-63
2023/06/01 00:38:45;;;;;;;;;;;;;;;;;;7367176;19;1994;-62
2023/06/01 00:41:13;;;;;;;;;;;;;;;;;;7367581;19;1765;-62
2023/06/01 00:43:41;;;;;;;;;;;;;;;;;;7368192;19;1726;-62
2023/06/01 00:46:09;;;;;;;;;;;;;;;;;;7369674;19;1748;-61
2023/06/01 00:48:38;;;;;;;;;;;;;;;;;;7366491;19;1622;-59
2023/06/01 00:51:06;;;;;;;;;;;;;;;;;;7367610;19;1494;-63
2023/06/01 00:53:34;;;;;;;;;;;;;;;;;;7371287;19;1797;-62
2023/06/01 00:56:02;;;;;;;;;;;;;;;;;;7364848;19;1970;-63
2023/06/01 00:58:30;;;;;;;;;;;;;;;;;;7365514;19;2159;-63
2023/06/01 01:00:58;;;;;;;;;;;;;;;;;;7366878;19;1777;-64
2023/06/01 01:03:31;;;;;;;;;;;;;;;;;;7365906;19;2270;-60
2023/06/01 01:06:01;;;;;;;;;;;;;;;;;;7369052;19;1573;-60
2023/06/01 01:08:29;;;;;;;;;;;;;;;;;;7365905;19;1802;-61
2023/06/01 01:10:57;;;;;;;;;;;;;;;;;;7365489;19;1712;-61
2023/06/01 01:13:25;;;;;;;;;;;;;;;;;;7364291;19;847;-61
2023/06/01 01:15:53;;;;;;;;;;;;;;;;;;7364842;19;2599;-59
2023/06/01 01:18:22;;;;;;;;;;;;;;;;;;7365669;19;2059;-59
2023/06/01 01:20:50;;;;;;;;;;;;;;;;;;7362238;19;1925;-58
2023/06/01 01:23:19;;;;;;;;;;;;;;;;;;7367411;19;1685;-60
2023/06/01 01:25:47;;;;;;;;;;;;;;;;;;7367367;19;1783;-62
2023/06/01 01:28:15;;;;;;;;;;;;;;;;;;7362503;19;870;-61
2023/06/01 01:30:43;;;;;;;;;;;;;;;;;;7365897;19;2375;-63
2023/06/01 01:33:12;;;;;;;;;;;;;;;;;;7367477;19;2096;-62
2023/06/01 01:35:40;;;;;;;;;;;;;;;;;;7367552;19;1791;-61
2023/06/01 01:38:08;;;;;;;;;;;;;;;;;;7365295;19;1889;-61
2023/06/01 01:40:36;;;;;;;;;;;;;;;;;;7365328;19;1811;-63
2023/06/01 01:43:04;;;;;;;;;;;;;;;;;;7366297;19;1931;-60
2023/06/01 01:45:32;;;;;;;;;;;;;;;;;;7368851;19;1905;-58
2023/06/01 01:48:01;;;;;;;;;;;;;;;;;;7367753;19;1490;-59
2023/06/01 01:50:29;;;;;;;;;;;;;;;;;;7361651;19;1305;-63
2023/06/01 01:52:57;;;;;;;;;;;;;;;;;;7365237;19;2250;-62
2023/06/01 01:55:26;;;;;;;;;;;;;;;;;;7366235;19;1990;-60
2023/06/01 01:57:54;;;;;;;;;;;;;;;;;;7364186;19;2081;-63
2023/06/01 02:00:22;;;;;;;;;;;;;;;;;;7365315;19;1745;-63
2023/06/01 02:02:50;;;;;;;;;;;;;;;;;;7364359;19;825;-59
2023/06/01 02:05:19;;;;;;;;;;;;;;;;;;7363644;19;2098;-62
2023/06/01 02:07:47;;;;;;;;;;;;;;;;;;7365706;19;1680;-62
2023/06/01 02:10:15;;;;;;;;;;;;;;;;;;7362013;19;2242;-59
2023/06/01 02:12:43;;;;;;;;;;;;;;;;;;7366309;19;1745;-60
2023/06/01 02:15:12;;;;;;;;;;;;;;;;;;7363024;19;1953;-62
2023/06/01 02:17:41;;;;;;;;;;;;;;;;;;7364755;19;1741;-67
2023/06/01 02:20:09;;;;;;;;;;;;;;;;;;7360687;19;1826;-60
2023/06/01 02:22:37;;;;;;;;;;;;;;;;;;7362811;19;1710;-62
2023/06/01 02:25:05;;;;;;;;;;;;;;;;;;7365438;19;2224;-62
2023/06/01 02:27:33;;;;;;;;;;;;;;;;;;7366408;19;1732;-65
2023/06/01 02:30:02;;;;;;;;;;;;;;;;;;7361774;19;1313;-59
2023/06/01 02:32:32;;;;;;;;;;;;;;;;;;7363835;19;2112;-63
2023/06/01 02:35:00;;;;;;;;;;;;;;;;;;7365770;19;1882;-63
2023/06/01 02:37:28;;;;;;;;;;;;;;;;;;7364212;19;2008;-59
2023/06/01 02:39:57;;;;;;;;;;;;;;;;;;7361189;19;1850;-62
2023/06/01 02:42:25;;;;;;;;;;;;;;;;;;7365815;19;1655;-63
2023/06/01 02:44:53;;;;;;;;;;;;;;;;;;7363649;19;869;-63
2023/06/01 02:47:21;;;;;;;;;;;;;;;;;;7362076;19;772;-62
2023/06/01 02:49:49;;;;;;;;;;;;;;;;;;7359225;19;1262;-63
2023/06/01 02:52:17;;;;;;;;;;;;;;;;;;7362648;19;2255;-62
2023/06/01 02:54:46;;;;;;;;;;;;;;;;;;7363636;19;1784;-62
2023/06/01 02:57:43;;;;;;;;;;;;;;;;;;7361499;19;1861;-62
2023/06/01 03:00:15;;;;;;;;;;;;;;;;;;7361608;19;1885;-58
2023/06/01 03:02:44;;;;;;;;;;;;;;;;;;7361141;19;835;-59
2023/06/01 03:05:14;;;;;;;;;;;;;;;;;;7362682;19;839;-61
2023/06/01 03:07:43;;;;;;;;;;;;;;;;;;7361506;19;2163;-61
2023/06/01 03:10:16;;;;;;;;;;;;;;;;;;7360920;19;1931;-62
2023/06/01 03:13:16;;;;;;;;;;;;;;;;;;7362270;19;2166;-59
2023/06/01 03:15:45;;;;;;;;;;;;;;;;;;7365057;19;1720;-59
2023/06/01 03:18:13;;;;;;;;;;;;;;;;;;7362402;19;1843;-61
2023/06/01 03:20:42;;;;;;;;;;;;;;;;;;7357917;19;1816;-60
2023/06/01 03:23:10;;;;;;;;;;;;;;;;;;7364581;19;1336;-60
2023/06/01 03:25:38;;;;;;;;;;;;;;;;;;7361708;19;1933;-60
2023/06/01 03:28:06;;;;;;;;;;;;;;;;;;7368435;19;1777;-63
2023/06/01 03:30:35;;;;;;;;;;;;;;;;;;7371672;19;1329;-62
2023/06/01 03:33:03;;;;;;;;;;;;;;;;;;7368817;19;1995;-56
2023/06/01 03:35:31;;;;;;;;;;;;;;;;;;7369736;19;1884;-62
2023/06/01 03:38:00;;;;;;;;;;;;;;;;;;7369567;19;1657;-63
2023/06/01 03:40:28;;;;;;;;;;;;;;;;;;7367097;19;1846;-62
2023/06/01 03:42:56;;;;;;;;;;;;;;;;;;7367917;19;1906;-60
2023/06/01 03:45:24;;;;;;;;;;;;;;;;;;7372434;19;1672;-61
2023/06/01 03:47:52;;;;;;;;;;;;;;;;;;7366303;19;934;-63
2023/06/01 03:50:20;;;;;;;;;;;;;;;;;;7365463;19;1289;-60
2023/06/01 03:52:50;;;;;;;;;;;;;;;;;;7367058;19;2160;-62
2023/06/01 03:55:19;;;;;;;;;;;;;;;;;;7370465;19;1770;-63
2023/06/01 03:58:18;;;;;;;;;;;;;;;;;;7368122;19;1696;-60
2023/06/01 04:00:47;;;;;;;;;;;;;;;;;;7368425;19;1757;-60
2023/06/01 04:03:15;;;;;;;;;;;;;;;;;;7366583;19;1815;-65
2023/06/01 04:05:49;;;;;;;;;;;;;;;;;;7370043;19;1354;-64
2023/06/01 04:08:19;;;;;;;;;;;;;;;;;;7368960;19;1640;-63
2023/06/01 04:10:47;;;;;;;;;;;;;;;;;;7366386;19;1739;-63
2023/06/01 04:13:16;;;;;;;;;;;;;;;;;;7367699;19;2338;-63
2023/06/01 04:15:44;;;;;;;;;;;;;;;;;;7368904;19;1753;-65
2023/06/01 04:18:12;;;;;;;;;;;;;;;;;;7365308;19;826;-62
2023/06/01 04:21:02;;;;;;;;;;;;;;;;;;7364007;19;1337;-64
2023/06/01 04:23:30;;;;;;;;;;;;;;;;;;7365089;19;1847;-63
2023/06/01 04:25:59;;;;;;;;;;;;;;;;;;7367111;19;1496;-62
2023/06/01 04:28:28;;;;;;;;;;;;;;;;;;7366248;19;1945;-65
2023/06/01 04:30:56;;;;;;;;;;;;;;;;;;7365653;19;1995;-63
2023/06/01 04:33:25;;;;;;;;;;;;;;;;;;7367971;19;1903;-62
2023/06/01 04:35:54;;;;;;;;;;;;;;;;;;7367262;19;1696;-62
2023/06/01 04:38:25;;;;;;;;;;;;;;;;;;7366875;19;1993;-62
2023/06/01 04:40:55;;;;;;;;;;;;;;;;;;7365761;19;1876;-61
2023/06/01 04:43:23;;;;;;;;;;;;;;;;;;7365210;19;2108;-62
2023/06/01 04:45:52;;;;;;;;;;;;;;;;;;7367337;19;1844;-62
2023/06/01 04:48:20;;;;;;;;;;;;;;;;;;7367978;19;1654;-58
2023/06/01 04:50:57;;;;;;;;;;;;;;;;;;7362394;19;1328;-60
2023/06/01 04:53:26;;;;;;;;;;;;;;;;;;7366380;19;1972;-60
2023/06/01 04:55:56;;;;;;;;;;;;;;;;;;7365314;19;1552;-62
2023/06/01 04:58:24;;;;;;;;;;;;;;;;;;7367511;19;1830;-62
2023/06/01 05:00:53;;;;;;;;;;;;;;;;;;7365382;19;1845;-60
2023/06/01 05:03:22;;;;;;;;;;;;;;;;;;7367817;19;1720;-59
2023/06/01 05:05:50;;;;;;;;;;;;;;;;;;7364813;19;1981;-62
2023/06/01 05:08:18;;;;;;;;;;;;;;;;;;7364228;19;1774;-62
2023/06/01 05:10:46;;;;;;;;;;;;;;;;;;7364016;19;1529;-61
2023/06/01 05:13:15;;;;;;;;;;;;;;;;;;7366788;19;2056;-60
2023/06/01 05:15:43;;;;;;;;;;;;;;;;;;7365136;19;798;-59
2023/06/01 05:18:11;;;;;;;;;;;;;;;;;;7363655;19;846;-61
2023/06/01 05:20:39;;;;;;;;;;;;;;;;;;7362674;19;1892;-62
2023/06/01 05:23:08;;;;;;;;;;;;;;;;;;7365686;19;2105;-61
2023/06/01 05:25:36;;;;;;;;;;;;;;;;;;7364025;19;795;-62
2023/06/01 05:28:05;;;;;;;;;;;;;;;;;;7360698;19;2054;-61
2023/06/01 05:30:33;;;;;;;;;;;;;;;;;;7361701;19;1886;-61
2023/06/01 05:33:03;;;;;;;;;;;;;;;;;;7366084;19;1808;-62
2023/06/01 05:35:31;;;;;;;;;;;;;;;;;;7365181;19;1986;-60
2023/06/01 05:37:59;;;;;;;;;;;;;;;;;;7359358;19;2001;-61
2023/06/01 05:40:27;;;;;;;;;;;;;;;;;;7363331;19;1971;-61
2023/06/01 05:42:56;;;;;;;;;;;;;;;;;;7364456;19;2025;-60
2023/06/01 05:45:24;;;;;;;;;;;;;;;;;;7366569;19;1885;-62
2023/06/01 05:47:52;;;;;;;;;;;;;;;;;;7365222;19;1954;-59
2023/06/01 05:50:20;;;;;;;;;;;;;;;;;;7361073;19;1865;-61
2023/06/01 05:52:48;;;;;;;;;;;;;;;;;;7362442;19;1907;-61
2023/06/01 05:55:16;;;;;;;;;;;;;;;;;;7367360;19;1539;-61
2023/06/01 05:57:45;;;;;;;;;;;;;;;;;;7362790;19;882;-63
2023/06/01 06:00:15;;;;;;;;;;;;;;;;;;7361620;19;1870;-62
2023/06/01 06:02:48;;;;;;;;;;;;;;;;;;7366068;19;762;-62
2023/06/01 06:05:16;;;;;;;;;;;;;;;;;;7365677;19;2452;-61
2023/06/01 06:07:44;;;;;;;;;;;;;;;;;;7366422;19;2344;-62
2023/06/01 06:10:12;;;;;;;;;;;;;;;;;;7365570;19;1500;-63
2023/06/01 06:12:40;;;;;;;;;;;;;;;;;;7364168;19;854;-60
2023/06/01 06:15:09;;;;;;;;;;;;;;;;;;7364177;19;790;-62
2023/06/01 06:17:37;;;;;;;;;;;;;;;;;;7363656;19;851;-62
2023/06/01 06:20:07;;;;;;;;;;;;;;;;;;7358469;19;1963;-61
2023/06/01 06:22:35;;;;;;;;;;;;;;;;;;7366720;19;1718;-60
2023/06/01 06:25:03;;;;;;;;;;;;;;;;;;7364353;19;1033;-61
2023/06/01 06:27:32;;;;;;;;;;;;;;;;;;7364147;19;871;-62
2023/06/01 06:30:00;;;;;;;;;;;;;;;;;;7364535;19;1246;-61
2023/06/01 06:32:28;;;;;;;;;;;;;;;;;;7363189;19;862;-59
2023/06/01 06:34:56;;;;;;;;;;;;;;;;;;7365208;19;2003;-59
2023/06/01 06:37:24;;;;;;;;;;;;;;;;;;7366215;19;1645;-61
2023/06/01 06:39:52;;;;;;;;;;;;;;;;;;7364938;19;1858;-58
2023/06/01 06:42:21;;;;;;;;;;;;;;;;;;7363307;19;755;-60
2023/06/01 06:44:50;;;;;;;;;;;;;;;;;;7364920;19;767;-61
2023/06/01 06:47:19;;;;;;;;;;;;;;;;;;7365811;19;1983;-63
2023/06/01 06:49:47;;;;;;;;;;;;;;;;;;7365917;19;1815;-60
2023/06/01 06:52:16;;;;;;;;;;;;;;;;;;7365435;19;1836;-60
2023/06/01 06:54:44;;;;;;;;;;;;;;;;;;7364340;19;2734;-58
2023/06/01 06:57:12;;;;;;;;;;;;;;;;;;7365867;19;1594;-62
2023/06/01 06:59:40;;;;;;;;;;;;;;;;;;7361636;19;2133;-58
2023/06/01 07:02:08;;;;;;;;;;;;;;;;;;7369447;19;2092;-61
2023/06/01 07:04:36;;;;;;;;;;;;;;;;;;7372295;19;1728;-62
2023/06/01 07:07:05;;;;;;;;;;;;;;;;;;7371753;19;1733;-61
2023/06/01 07:09:33;;;;;;;;;;;;;;;;;;7370111;19;1724;-61
2023/06/01 07:12:01;;;;;;;;;;;;;;;;;;7369947;19;1867;-60
2023/06/01 07:14:30;;;;;;;;;;;;;;;;;;7371117;19;2211;-62
2023/06/01 07:16:58;;;;;;;;;;;;;;;;;;7371937;19;1946;-61
2023/06/01 07:19:32;;;;;;;;;;;;;;;;;;7371342;19;1860;-62
2023/06/01 07:22:00;;;;;;;;;;;;;;;;;;7372995;19;1608;-58
2023/06/01 07:24:28;;;;;;;;;;;;;;;;;;7371164;19;2211;-59
2023/06/01 07:26:57;;;;;;;;;;;;;;;;;;7371025;19;2123;-60
2023/06/01 07:29:26;;;;;;;;;;;;;;;;;;7370224;19;1858;-59
2023/06/01 07:31:54;;;;;;;;;;;;;;;;;;7368186;19;1870;-60
2023/06/01 07:34:23;;;;;;;;;;;;;;;;;;7371830;19;1953;-61
2023/06/01 07:36:51;;;;;;;;;;;;;;;;;;7367430;19;1849;-64
2023/06/01 07:39:19;;;;;;;;;;;;;;;;;;7370425;19;1805;-62
2023/06/01 07:41:50;;;;;;;;;;;;;;;;;;7368021;19;1935;-62
2023/06/01 07:44:18;;;;;;;;;;;;;;;;;;7370905;19;1866;-64
2023/06/01 07:46:47;;;;;;;;;;;;;;;;;;7372142;19;1592;-58
2023/06/01 07:49:15;;;;;;;;;;;;;;;;;;7368043;19;1879;-58
2023/06/01 07:51:43;;;;;;;;;;;;;;;;;;7367184;19;2039;-63
2023/06/01 07:54:11;;;;;;;;;;;;;;;;;;7371043;19;1741;-59
2023/06/01 07:56:39;;;;;;;;;;;;;;;;;;7369930;19;1751;-57
2023/06/01 07:59:07;;;;;;;;;;;;;;;;;;7370919;19;1360;-58
2023/06/01 08:01:36;;;;;;;;;;;;;;;;;;7368586;19;1850;-61
2023/06/01 08:04:04;;;;;;;;;;;;;;;;;;7370646;19;1709;-59
2023/06/01 08:06:35;;;;;;;;;;;;;;;;;;7368268;19;1787;-63
2023/06/01 08:09:04;;;;;;;;;;;;;;;;;;7367252;19;1798;-58
2023/06/01 08:11:32;;;;;;;;;;;;;;;;;;7368074;19;1991;-58
2023/06/01 08:14:02;;;;;;;;;;;;;;;;;;7366360;19;2119;-59
2023/06/01 08:16:31;;;;;;;;;;;;;;;;;;7368885;19;1507;-58
2023/06/01 08:18:59;;;;;;;;;;;;;;;;;;7365886;19;1716;-59
2023/06/01 08:21:27;;;;;;;;;;;;;;;;;;7367998;19;1842;-59
2023/06/01 08:23:57;;;;;;;;;;;;;;;;;;7368894;19;1924;-61
2023/06/01 08:26:25;;;;;;;;;;;;;;;;;;7368092;19;2028;-59
2023/06/01 08:28:54;;;;;;;;;;;;;;;;;;7367601;19;1686;-62
2023/06/01 08:31:22;;;;;;;;;;;;;;;;;;7365690;19;1618;-61
2023/06/01 08:33:50;;;;;;;;;;;;;;;;;;7369495;19;1789;-58
2023/06/01 08:36:18;;;;;;;;;;;;;;;;;;7367960;19;1997;-61
2023/06/01 08:38:46;;;;;;;;;;;;;;;;;;7367227;19;1891;-59
2023/06/01 08:41:15;;;;;;;;;;;;;;;;;;7367378;19;1855;-59
2023/06/01 08:43:43;;;;;;;;;;;;;;;;;;7365919;19;2019;-61
2023/06/01 08:46:11;;;;;;;;;;;;;;;;;;7368297;19;2009;-58
2023/06/01 08:48:39;;;;;;;;;;;;;;;;;;7365114;19;783;-58
2023/06/01 08:51:07;;;;;;;;;;;;;;;;;;7367858;19;2109;-62
2023/06/01 08:53:35;;;;;;;;;;;;;;;;;;7369869;19;1244;-60
2023/06/01 08:56:04;;;;;;;;;;;;;;;;;;7364529;19;786;-63
2023/06/01 08:58:32;;;;;;;;;;;;;;;;;;7367300;19;2358;-60
2023/06/01 09:01:00;;;;;;;;;;;;;;;;;;7366036;19;1881;-62
2023/06/01 09:03:28;;;;;;;;;;;;;;;;;;7365341;19;800;-60
2023/06/01 09:05:56;;;;;;;;;;;;;;;;;;7365625;19;779;-61
2023/06/01 09:08:24;;;;;;;;;;;;;;;;;;7364735;19;872;-59
2023/06/01 09:10:52;;;;;;;;;;;;;;;;;;7362377;19;2037;-59
2023/06/01 09:13:20;;;;;;;;;;;;;;;;;;7369755;19;1850;-58
2023/06/01 09:15:48;;;;;;;;;;;;;;;;;;7368542;19;2233;-63
2023/06/01 09:18:17;;;;;;;;;;;;;;;;;;7369186;19;1767;-60
2023/06/01 09:20:45;;;;;;;;;;;;;;;;;;7363307;19;1833;-62
2023/06/01 09:23:15;;;;;;;;;;;;;;;;;;7361491;19;1126;-60
2023/06/01 09:25:44;;;;;;;;;;;;;;;;;;7365052;19;866;-61
2023/06/01 09:28:12;;;;;;;;;;;;;;;;;;7364644;19;838;-62
2023/06/01 09:30:40;;;;;;;;;;;;;;;;;;7365758;19;1831;-61
2023/06/01 09:33:08;;;;;;;;;;;;;;;;;;7369443;19;1619;-61
2023/06/01 09:35:36;;;;;;;;;;;;;;;;;;7365495;19;744;-58
2023/06/01 09:38:06;;;;;;;;;;;;;;;;;;7364703;19;892;-59
2023/06/01 09:40:34;;;;;;;;;;;;;;;;;;7361798;19;1841;-59
2023/06/01 09:43:02;;;;;;;;;;;;;;;;;;7365141;19;839;-62
2023/06/01 09:45:30;;;;;;;;;;;;;;;;;;7366340;19;2259;-60
2023/06/01 09:47:58;;;;;;;;;;;;;;;;;;7363527;19;778;-63
2023/06/01 09:50:27;;;;;;;;;;;;;;;;;;7361576;19;1265;-63
2023/06/01 09:52:55;;;;;;;;;;;;;;;;;;7364246;19;777;-62
2023/06/01 09:55:23;;;;;;;;;;;;;;;;;;7364030;19;801;-62
2023/06/01 09:57:51;;;;;;;;;;;;;;;;;;7363957;19;817;-60
2023/06/01 10:00:19;;;;;;;;;;;;;;;;;;7361061;19;1842;-59
2023/06/01 10:02:48;;;;;;;;;;;;;;;;;;7367688;19;1752;-63
2023/06/01 10:05:16;;;;;;;;;;;;;;;;;;7368523;19;1664;-59
2023/06/01 10:07:44;;;;;;;;;;;;;;;;;;7363561;19;808;-62
2023/06/01 10:10:12;;;;;;;;;;;;;;;;;;7362753;19;1320;-62
2023/06/01 10:12:40;;;;;;;;;;;;;;;;;;7364099;19;697;-60
2023/06/01 10:15:08;;;;;;;;;;;;;;;;;;7364170;19;802;-63
2023/06/01 10:17:38;;;;;;;;;;;;;;;;;;7364298;19;1795;-64
2023/06/01 10:20:06;;;;;;;;;;;;;;;;;;7364144;19;1455;-62
2023/06/01 10:22:34;;;;;;;;;;;;;;;;;;7360730;19;1833;-60
2023/06/01 10:25:02;;;;;;;;;;;;;;;;;;7363995;19;855;-60
2023/06/01 10:27:31;;;;;;;;;;;;;;;;;;7365140;19;857;-62
2023/06/01 10:29:59;;;;;;;;;;;;;;;;;;7364332;19;1819;-63
2023/06/01 10:32:27;;;;;;;;;;;;;;;;;;7364026;19;816;-63
2023/06/01 10:34:55;;;;;;;;;;;;;;;;;;7369393;19;2055;-63
2023/06/01 10:37:23;;;;;;;;;;;;;;;;;;7374033;19;1521;-61
2023/06/01 10:39:51;;;;;;;;;;;;;;;;;;7371065;19;1937;-62
2023/06/01 10:42:20;;;;;;;;;;;;;;;;;;7374136;19;1853;-62
2023/06/01 10:44:48;;;;;;;;;;;;;;;;;;7374063;19;916;-62
2023/06/01 10:47:17;;;;;;;;;;;;;;;;;;7370638;19;1531;-65
2023/06/01 10:49:45;;;;;;;;;;;;;;;;;;7377384;19;1652;-63
2023/06/01 10:52:13;;;;;;;;;;;;;;;;;;7381883;19;1651;-64
2023/06/01 10:54:41;;;;;;;;;;;;;;;;;;7380761;19;1771;-64
2023/06/01 10:57:09;;;;;;;;;;;;;;;;;;7390831;19;1468;-64
2023/06/01 10:59:37;;;;;;;;;;;;;;;;;;7388894;19;1320;-63
2023/06/01 11:02:05;;;;;;;;;;;;;;;;;;7389044;19;1993;-63
2023/06/01 11:04:34;;;;;;;;;;;;;;;;;;7385690;19;1495;-63
2023/06/01 11:07:02;;;;;;;;;;;;;;;;;;7386149;19;1046;-62
2023/06/01 11:09:30;;;;;;;;;;;;;;;;;;7369848;19;1997;-63
2023/06/01 11:11:59;;;;;;;;;;;;;;;;;;7369678;19;866;-62
2023/06/01 11:14:29;;;;;;;;;;;;;;;;;;7369163;19;828;-62
2023/06/01 11:16:59;;;;;;;;;;;;;;;;;;7371629;19;1754;-60
2023/06/01 11:19:27;;;;;;;;;;;;;;;;;;7368702;19;1723;-61
2023/06/01 11:21:55;;;;;;;;;;;;;;;;;;7370581;19;1985;-62
2023/06/01 11:24:23;;;;;;;;;;;;;;;;;;7373083;19;1695;-63
2023/06/01 11:26:52;;;;;;;;;;;;;;;;;;7368421;19;787;-62
2023/06/01 11:29:20;;;;;;;;;;;;;;;;;;7366703;19;1285;-62
2023/06/01 11:31:48;;;;;;;;;;;;;;;;;;7366897;19;2020;-63
2023/06/01 11:34:18;;;;;;;;;;;;;;;;;;7372668;19;1637;-64
2023/06/01 11:36:48;;;;;;;;;;;;;;;;;;7369444;19;845;-62
2023/06/01 11:39:16;;;;;;;;;;;;;;;;;;7367626;19;1333;-60
2023/06/01 11:41:45;;;;;;;;;;;;;;;;;;7367156;19;1850;-62
2023/06/01 11:44:13;;;;;;;;;;;;;;;;;;7368296;19;813;-63
2023/06/01 11:46:41;;;;;;;;;;;;;;;;;;7365329;19;881;-61
2023/06/01 11:49:13;;;;;;;;;;;;;;;;;;7369062;19;1990;-59
2023/06/01 11:51:42;;;;;;;;;;;;;;;;;;7370223;19;1462;-60
2023/06/01 11:54:10;;;;;;;;;;;;;;;;;;7368361;19;1891;-61
2023/06/01 11:56:39;;;;;;;;;;;;;;;;;;7370519;19;1700;-59
2023/06/01 11:59:08;;;;;;;;;;;;;;;;;;7366635;19;1297;-60
2023/06/01 12:01:36;;;;;;;;;;;;;;;;;;7366701;19;1846;-59
2023/06/01 12:04:07;;;;;;;;;;;;;;;;;;7367876;19;825;-59
2023/06/01 12:06:35;;;;;;;;;;;;;;;;;;7367566;19;742;-63
2023/06/01 12:09:06;;;;;;;;;;;;;;;;;;7369651;19;1994;-61
2023/06/01 12:11:34;;;;;;;;;;;;;;;;;;7371768;19;1750;-61
2023/06/01 12:14:05;;;;;;;;;;;;;;;;;;7367143;19;1984;-59
2023/06/01 12:16:33;;;;;;;;;;;;;;;;;;7369445;19;1484;-59
2023/06/01 12:19:01;;;;;;;;;;;;;;;;;;7364863;19;1359;-61
2023/06/01 12:21:29;;;;;;;;;;;;;;;;;;7366663;19;2027;-62
2023/06/01 12:23:57;;;;;;;;;;;;;;;;;;7368297;19;2282;-61
2023/06/01 12:26:26;;;;;;;;;;;;;;;;;;7370745;19;1610;-62
2023/06/01 12:28:55;;;;;;;;;;;;;;;;;;7365827;19;1290;-60
2023/06/01 12:31:24;;;;;;;;;;;;;;;;;;7365771;19;806;-61
2023/06/01 12:33:52;;;;;;;;;;;;;;;;;;7366558;19;798;-61
2023/06/01 12:36:20;;;;;;;;;;;;;;;;;;7366646;19;785;-61
2023/06/01 12:38:48;;;;;;;;;;;;;;;;;;7366875;19;2269;-61
2023/06/01 12:41:17;;;;;;;;;;;;;;;;;;7370322;19;1861;-60
2023/06/01 12:43:46;;;;;;;;;;;;;;;;;;7365557;19;940;-61
2023/06/01 12:46:14;;;;;;;;;;;;;;;;;;7366396;19;851;-59
2023/06/01 12:48:42;;;;;;;;;;;;;;;;;;7365519;19;830;-60
2023/06/01 12:51:10;;;;;;;;;;;;;;;;;;7365467;19;834;-60
2023/06/01 12:53:38;;;;;;;;;;;;;;;;;;7364475;19;1822;-62
2023/06/01 12:56:07;;;;;;;;;;;;;;;;;;7371696;19;2022;-62
2023/06/01 12:58:35;;;;;;;;;;;;;;;;;;7369577;19;1533;-61
2023/06/01 13:01:03;;;;;;;;;;;;;;;;;;7362426;19;1858;-60
2023/06/01 13:03:32;;;;;;;;;;;;;;;;;;7365695;19;862;-60
2023/06/01 13:06:00;;;;;;;;;;;;;;;;;;7364942;19;762;-59
2023/06/01 13:08:29;;;;;;;;;;;;;;;;;;7365769;19;1974;-63
2023/06/01 13:10:57;;;;;;;;;;;;;;;;;;7365935;19;1673;-57
2023/06/01 13:13:26;;;;;;;;;;;;;;;;;;7364954;19;848;-59
2023/06/01 13:15:54;;;;;;;;;;;;;;;;;;7365379;19;777;-60
2023/06/01 13:18:22;;;;;;;;;;;;;;;;;;7365344;19;828;-61
2023/06/01 13:20:50;;;;;;;;;;;;;;;;;;7363321;19;1273;-59
2023/06/01 13:23:18;;;;;;;;;;;;;;;;;;7365357;19;2214;-59
2023/06/01 13:25:46;;;;;;;;;;;;;;;;;;7368308;19;1462;-57
2023/06/01 13:28:15;;;;;;;;;;;;;;;;;;7364735;19;809;-59
2023/06/01 13:30:43;;;;;;;;;;;;;;;;;;7362228;19;1350;-61
2023/06/01 13:33:12;;;;;;;;;;;;;;;;;;7364779;19;826;-61
2023/06/01 13:35:40;;;;;;;;;;;;;;;;;;7364339;19;904;-60
2023/06/01 13:38:08;;;;;;;;;;;;;;;;;;7367206;19;2073;-61
2023/06/01 13:40:36;;;;;;;;;;;;;;;;;;7366770;19;1707;-58
2023/06/01 13:43:04;;;;;;;;;;;;;;;;;;7362684;19;1859;-60
2023/06/01 13:45:33;;;;;;;;;;;;;;;;;;7365157;19;767;-61
2023/06/01 13:48:01;;;;;;;;;;;;;;;;;;7363910;19;864;-58
2023/06/01 13:50:29;;;;;;;;;;;;;;;;;;7361093;19;2162;-60
2023/06/01 13:52:58;;;;;;;;;;;;;;;;;;7367771;19;1310;-57
2023/06/01 13:55:27;;;;;;;;;;;;;;;;;;7368752;19;1236;-58
2023/06/01 13:57:56;;;;;;;;;;;;;;;;;;7362868;19;897;-62
2023/06/01 14:00:24;;;;;;;;;;;;;;;;;;7361590;19;1343;-59
2023/06/01 14:02:52;;;;;;;;;;;;;;;;;;7362448;19;1837;-57
2023/06/01 14:05:20;;;;;;;;;;;;;;;;;;7366523;19;1992;-58
2023/06/01 14:07:48;;;;;;;;;;;;;;;;;;7366541;19;1462;-59
2023/06/01 14:10:17;;;;;;;;;;;;;;;;;;7361355;19;1230;-61
2023/06/01 14:12:45;;;;;;;;;;;;;;;;;;7363386;19;965;-61
2023/06/01 14:15:13;;;;;;;;;;;;;;;;;;7364023;19;871;-59
2023/06/01 14:17:41;;;;;;;;;;;;;;;;;;7363615;19;2647;-60
2023/06/01 14:20:09;;;;;;;;;;;;;;;;;;7363052;19;2020;-58
2023/06/01 14:22:37;;;;;;;;;;;;;;;;;;7362340;19;1830;-57
2023/06/01 14:25:06;;;;;;;;;;;;;;;;;;7363633;19;830;-60
2023/06/01 14:27:34;;;;;;;;;;;;;;;;;;7363739;19;802;-58
2023/06/01 14:30:03;;;;;;;;;;;;;;;;;;7361508;19;1263;-61
2023/06/01 14:32:31;;;;;;;;;;;;;;;;;;7363554;19;2379;-60
2023/06/01 14:34:59;;;;;;;;;;;;;;;;;;7366814;19;1746;-63
2023/06/01 14:37:27;;;;;;;;;;;;;;;;;;7363004;19;884;-61
2023/06/01 14:39:55;;;;;;;;;;;;;;;;;;7362769;19;1940;-62
2023/06/01 14:42:23;;;;;;;;;;;;;;;;;;7365999;19;1838;-61
2023/06/01 14:44:52;;;;;;;;;;;;;;;;;;7362119;19;873;-61
2023/06/01 14:47:20;;;;;;;;;;;;;;;;;;7363315;19;824;-60
2023/06/01 14:49:48;;;;;;;;;;;;;;;;;;7360615;19;1356;-62
2023/06/01 14:52:16;;;;;;;;;;;;;;;;;;7361015;19;2196;-59
2023/06/01 14:54:45;;;;;;;;;;;;;;;;;;7365822;19;1786;-62
2023/06/01 14:57:13;;;;;;;;;;;;;;;;;;7366997;19;1653;-62
2023/06/01 14:59:41;;;;;;;;;;;;;;;;;;7359727;19;1276;-59
2023/06/01 15:02:09;;;;;;;;;;;;;;;;;;7361579;19;2025;-59
2023/06/01 15:04:37;;;;;;;;;;;;;;;;;;7365053;19;1302;-58
2023/06/01 15:07:05;;;;;;;;;;;;;;;;;;7362207;19;851;-61
2023/06/01 15:09:33;;;;;;;;;;;;;;;;;;7361409;19;1245;-59
2023/06/01 15:12:02;;;;;;;;;;;;;;;;;;7361552;19;861;-60
2023/06/01 15:14:30;;;;;;;;;;;;;;;;;;7364564;19;1602;-61
2023/06/01 15:16:58;;;;;;;;;;;;;;;;;;7362466;19;2461;-63
2023/06/01 15:19:26;;;;;;;;;;;;;;;;;;7362524;19;1460;-63
2023/06/01 15:21:54;;;;;;;;;;;;;;;;;;7363191;19;1854;-63
2023/06/01 15:24:23;;;;;;;;;;;;;;;;;;7371888;19;1626;-61
2023/06/01 15:26:51;;;;;;;;;;;;;;;;;;7370203;19;1899;-62
2023/06/01 15:29:19;;;;;;;;;;;;;;;;;;7367766;19;1935;-60
2023/06/01 15:31:47;;;;;;;;;;;;;;;;;;7369793;19;1806;-60
2023/06/01 15:34:15;;;;;;;;;;;;;;;;;;7369761;19;1425;-61
2023/06/01 15:36:43;;;;;;;;;;;;;;;;;;7368001;19;802;-62
2023/06/01 15:39:13;;;;;;;;;;;;;;;;;;7367636;19;1757;-60
2023/06/01 15:41:41;;;;;;;;;;;;;;;;;;7369569;19;2142;-62
2023/06/01 15:44:09;;;;;;;;;;;;;;;;;;7365700;19;1876;-63
2023/06/01 15:46:37;;;;;;;;;;;;;;;;;;7368930;19;1891;-57
2023/06/01 15:49:05;;;;;;;;;;;;;;;;;;7369313;19;1661;-62
2023/06/01 15:51:33;;;;;;;;;;;;;;;;;;7371348;19;1556;-62
2023/06/01 15:54:02;;;;;;;;;;;;;;;;;;7368845;19;2076;-58
2023/06/01 15:56:30;;;;;;;;;;;;;;;;;;7371320;19;1604;-60
2023/06/01 15:58:58;;;;;;;;;;;;;;;;;;7366498;19;1933;-61
2023/06/01 16:01:26;;;;;;;;;;;;;;;;;;7368187;19;1885;-61
2023/06/01 16:03:54;;;;;;;;;;;;;;;;;;7366593;19;1849;-60
2023/06/01 16:06:22;;;;;;;;;;;;;;;;;;7368212;19;1845;-61
2023/06/01 16:08:50;;;;;;;;;;;;;;;;;;7366349;19;2058;-57
2023/06/01 16:11:18;;;;;;;;;;;;;;;;;;7369741;19;1753;-62
2023/06/01 16:13:47;;;;;;;;;;;;;;;;;;7370067;19;1747;-60
2023/06/01 16:16:15;;;;;;;;;;;;;;;;;;7369702;19;1792;-59
2023/06/01 16:18:43;;;;;;;;;;;;;;;;;;7369242;19;1490;-59
2023/06/01 16:21:12;;;;;;;;;;;;;;;;;;7369398;19;2120;-59
2023/06/01 16:23:40;;;;;;;;;;;;;;;;;;7366012;19;1861;-61
2023/06/01 16:26:08;;;;;;;;;;;;;;;;;;7365703;19;1847;-60
2023/06/01 16:28:37;;;;;;;;;;;;;;;;;;7365042;19;791;-57
2023/06/01 16:31:06;;;;;;;;;;;;;;;;;;7359410;19;1864;-61
2023/06/01 16:33:34;;;;;;;;;;;;;;;;;;7364233;19;872;-59
2023/06/01 16:36:02;;;;;;;;;;;;;;;;;;7367239;19;889;-59
2023/06/01 16:38:30;;;;;;;;;;;;;;;;;;7365130;19;816;-62
2023/06/01 16:40:58;;;;;;;;;;;;;;;;;;7364283;19;1270;-59
2023/06/01 16:43:26;;;;;;;;;;;;;;;;;;7365313;19;1850;-61
2023/06/01 16:45:54;;;;;;;;;;;;;;;;;;7369259;19;2282;-60
2023/06/01 16:48:23;;;;;;;;;;;;;;;;;;7369033;19;1473;-59
2023/06/01 16:50:51;;;;;;;;;;;;;;;;;;7364492;19;1269;-61
2023/06/01 16:53:20;;;;;;;;;;;;;;;;;;7368274;19;1566;-61
2023/06/01 16:55:48;;;;;;;;;;;;;;;;;;7364583;19;816;-58
2023/06/01 16:58:16;;;;;;;;;;;;;;;;;;7365819;19;2114;-61
2023/06/01 17:00:44;;;;;;;;;;;;;;;;;;7366394;19;1519;-57
2023/06/01 17:03:12;;;;;;;;;;;;;;;;;;7364459;19;1842;-60
2023/06/01 17:05:40;;;;;;;;;;;;;;;;;;7365832;19;760;-58
2023/06/01 17:08:09;;;;;;;;;;;;;;;;;;7366906;19;1873;-60
2023/06/01 17:10:37;;;;;;;;;;;;;;;;;;7365958;19;2210;-58
2023/06/01 17:13:05;;;;;;;;;;;;;;;;;;7366724;19;2027;-59
2023/06/01 17:15:33;;;;;;;;;;;;;;;;;;7367185;19;1721;-61